createdAt,value
2022-09-28T00:01:25.554Z,99412.84
2022-09-28T00:03:57.574Z,99411.19
2022-09-28T00:06:28.101Z,99413.88
2022-09-28T00:08:55.721Z,99412.13
2022-09-28T00:11:27.383Z,99405.00
2022-09-28T00:14:00.249Z,99411.06
2022-09-28T00:16:31.839Z,99410.16
2022-09-28T00:18:59.802Z,99406.56
2022-09-28T00:21:32.183Z,99416.16
2022-09-28T00:24:17.213Z,99411.75
2022-09-28T00:26:50.111Z,99421.31
2022-09-28T00:29:33.343Z,99413.44
2022-09-28T00:32:15.534Z,99419.56
2022-09-28T00:34:48.852Z,99421.28
2022-09-28T00:37:16.033Z,99401.16
2022-09-28T00:39:44.019Z,99410.75
2022-09-28T00:42:18.695Z,99409.00
2022-09-28T00:44:57.597Z,99408.66
2022-09-28T00:47:52.045Z,99402.59
2022-09-28T00:50:26.505Z,99406.06
2022-09-28T00:53:09.480Z,99399.03
2022-09-28T00:55:52.080Z,99396.34
2022-09-28T00:58:27.508Z,99394.66
2022-09-28T01:00:58.230Z,99389.38
2022-09-28T01:03:27.784Z,99395.50
2022-09-28T01:05:59.109Z,99381.44
2022-09-28T01:08:29.200Z,99384.00
2022-09-28T01:10:59.320Z,99373.47
2022-09-28T01:13:27.158Z,99379.59
2022-09-28T01:16:08.224Z,99379.69
2022-09-28T01:18:58.703Z,99373.41
2022-09-28T01:21:26.363Z,99373.38
2022-09-28T01:24:24.784Z,99368.06
2022-09-28T01:27:13.514Z,99380.34
2022-09-28T01:29:48.301Z,99381.16
2022-09-28T01:32:37.528Z,99387.28
2022-09-28T01:35:21.994Z,99382.81
2022-09-28T01:38:24.883Z,99384.63
2022-09-28T01:40:54.195Z,99391.63
2022-09-28T01:43:28.207Z,99393.31
2022-09-28T01:46:08.126Z,99396.03
2022-09-28T01:48:58.798Z,99394.25
2022-09-28T01:51:42.496Z,99402.13
2022-09-28T01:54:24.835Z,99400.31
2022-09-28T01:57:25.566Z,99402.13
2022-09-28T02:00:12.871Z,99397.78
2022-09-28T02:03:01.470Z,99397.81
2022-09-28T02:05:35.087Z,99398.66
2022-09-28T02:08:17.128Z,99394.34
2022-09-28T02:11:04.819Z,99403.00
2022-09-28T02:13:35.729Z,99389.84
2022-09-28T02:16:21.153Z,99395.19
2022-09-28T02:18:48.339Z,99381.16
2022-09-28T02:21:31.684Z,99390.81
2022-09-28T02:24:06.924Z,99392.56
2022-09-28T02:26:41.908Z,99392.59
2022-09-28T02:29:08.999Z,99391.81
2022-09-28T02:31:36.600Z,99392.72
2022-09-28T02:34:03.705Z,99391.94
2022-09-28T02:36:31.299Z,99395.56
2022-09-28T02:38:58.470Z,99397.38
2022-09-28T02:41:46.170Z,99392.16
2022-09-28T02:45:06.616Z,99393.09
2022-09-28T02:48:14.248Z,99396.66
2022-09-28T02:51:09.419Z,99403.75
2022-09-28T02:53:49.706Z,99403.88
2022-09-28T02:56:39.411Z,99401.28
2022-09-28T02:59:27.852Z,99403.03
2022-09-28T03:02:20.737Z,99407.50
2022-09-28T03:05:25.874Z,99401.41
2022-09-28T03:08:06.891Z,99406.72
2022-09-28T03:10:54.769Z,99409.44
2022-09-28T03:13:22.613Z,99398.97
2022-09-28T03:15:49.752Z,99405.06
2022-09-28T03:18:17.632Z,99408.56
2022-09-28T03:20:45.053Z,99405.16
2022-09-28T03:23:24.460Z,99403.38
2022-09-28T03:25:52.495Z,99406.03
2022-09-28T03:28:21.235Z,99404.28
2022-09-28T03:30:48.352Z,99408.63
2022-09-28T03:33:15.457Z,99407.69
2022-09-28T03:35:45.876Z,99405.88
2022-09-28T03:38:13.112Z,99396.25
2022-09-28T03:40:41.552Z,99401.41
2022-09-28T03:43:08.707Z,99401.31
2022-09-28T03:45:35.836Z,99402.28
2022-09-28T03:48:02.870Z,99397.84
2022-09-28T03:50:29.828Z,99406.53
2022-09-28T03:53:03.636Z,99401.19
2022-09-28T03:55:31.027Z,99409.06
2022-09-28T03:57:58.024Z,99411.69
2022-09-28T04:00:25.577Z,99410.78
2022-09-28T04:02:53.627Z,99411.72
2022-09-28T04:05:20.649Z,99412.72
2022-09-28T04:07:47.600Z,99410.97
2022-09-28T04:10:14.678Z,99408.41
2022-09-28T04:12:41.619Z,99405.91
2022-09-28T04:15:09.059Z,99411.09
2022-09-28T04:17:39.952Z,99395.44
2022-09-28T04:20:07.877Z,99412.06
2022-09-28T04:22:37.603Z,99409.28
2022-09-28T04:25:05.772Z,99414.44
2022-09-28T04:27:51.739Z,99418.78
2022-09-28T04:30:18.798Z,99414.41
2022-09-28T04:32:49.112Z,99411.78
2022-09-28T04:35:16.957Z,99416.97
2022-09-28T04:37:43.933Z,99415.25
2022-09-28T04:40:11.104Z,99412.56
2022-09-28T04:42:38.273Z,99413.44
2022-09-28T04:45:06.351Z,99414.38
2022-09-28T04:47:33.277Z,99406.56
2022-09-28T04:50:00.368Z,99401.41
2022-09-28T04:52:27.352Z,99411.19
2022-09-28T04:54:54.377Z,99403.38
2022-09-28T04:57:21.455Z,99406.00
2022-09-28T04:59:48.362Z,99408.69
2022-09-28T05:02:15.486Z,99409.59
2022-09-28T05:04:42.641Z,99412.31
2022-09-28T05:07:09.718Z,99416.78
2022-09-28T05:09:38.534Z,99410.81
2022-09-28T05:12:05.847Z,99410.88
2022-09-28T05:14:32.807Z,99412.63
2022-09-28T05:16:59.861Z,99418.75
2022-09-28T05:19:27.296Z,99417.06
2022-09-28T05:21:55.411Z,99418.81
2022-09-28T05:24:22.600Z,99423.31
2022-09-28T05:26:49.637Z,99427.69
2022-09-28T05:29:16.723Z,99424.22
2022-09-28T05:31:43.912Z,99434.69
2022-09-28T05:34:10.910Z,99432.13
2022-09-28T05:36:39.176Z,99431.25
2022-09-28T05:39:06.882Z,99428.59
2022-09-28T05:41:33.875Z,99426.78
2022-09-28T05:44:01.277Z,99427.69
2022-09-28T05:46:28.548Z,99426.69
2022-09-28T05:48:55.587Z,99420.47
2022-09-28T05:51:24.617Z,99422.16
2022-09-28T05:53:55.588Z,99416.69
2022-09-28T05:56:22.761Z,99427.13
2022-09-28T05:58:49.829Z,99428.88
2022-09-28T06:01:16.895Z,99428.00
2022-09-28T06:03:43.956Z,99435.66
2022-09-28T06:06:10.921Z,99438.28
2022-09-28T06:08:37.971Z,99434.84
2022-09-28T06:11:04.986Z,99429.66
2022-09-28T06:13:32.125Z,99442.75
2022-09-28T06:15:59.829Z,99443.66
2022-09-28T06:18:26.889Z,99447.16
2022-09-28T06:20:53.904Z,99451.56
2022-09-28T06:23:20.955Z,99447.22
2022-09-28T06:25:47.936Z,99450.78
2022-09-28T06:28:16.660Z,99454.25
2022-09-28T06:30:45.113Z,99459.50
2022-09-28T06:33:14.410Z,99467.34
2022-09-28T06:35:42.246Z,99463.78
2022-09-28T06:38:09.953Z,99462.84
2022-09-28T06:40:37.678Z,99462.78
2022-09-28T06:43:15.200Z,99467.91
2022-09-28T06:45:43.254Z,99462.63
2022-09-28T06:48:11.422Z,99467.66
2022-09-28T06:50:41.386Z,99465.72
2022-09-28T06:53:13.735Z,99463.78
2022-09-28T06:55:43.500Z,99469.69
2022-09-28T06:58:14.884Z,99471.56
2022-09-28T07:00:42.286Z,99479.31
2022-09-28T07:03:15.687Z,99488.03
2022-09-28T07:05:46.345Z,99482.78
2022-09-28T07:08:14.635Z,99490.53
2022-09-28T07:10:44.557Z,99487.63
2022-09-28T07:13:35.388Z,99490.13
2022-09-28T07:16:01.794Z,99503.09
2022-09-28T07:18:29.935Z,99495.09
2022-09-28T07:20:57.420Z,99487.09
2022-09-28T07:23:30.952Z,99498.16
2022-09-28T07:25:58.371Z,99502.53
2022-09-28T07:28:25.971Z,99499.56
2022-09-28T07:30:53.302Z,99495.88
2022-09-28T07:33:22.200Z,99500.69
2022-09-28T07:35:55.484Z,99492.47
2022-09-28T07:38:30.984Z,99500.16
2022-09-28T07:41:15.106Z,99502.66
2022-09-28T07:43:43.191Z,99505.19
2022-09-28T07:46:13.902Z,99510.69
2022-09-28T07:48:52.006Z,99513.13
2022-09-28T07:51:23.835Z,99510.34
2022-09-28T07:53:54.402Z,99504.16
2022-09-28T07:56:25.130Z,99514.50
2022-09-28T07:58:54.021Z,99519.56
2022-09-28T08:01:32.411Z,99523.94
2022-09-28T08:04:12.491Z,99520.25
2022-09-28T08:06:40.638Z,99509.84
2022-09-28T08:09:07.701Z,99518.50
2022-09-28T08:11:35.047Z,99520.19
2022-09-28T08:14:02.827Z,99522.50
2022-09-28T08:16:30.433Z,99519.69
2022-09-28T08:18:57.711Z,99522.25
2022-09-28T08:21:43.635Z,99524.91
2022-09-28T08:24:11.671Z,99524.66
2022-09-28T08:26:38.803Z,99525.59
2022-09-28T08:29:06.542Z,99529.69
2022-09-28T08:31:33.734Z,99530.56
2022-09-28T08:34:00.893Z,99529.41
2022-09-28T08:36:29.226Z,99530.81
2022-09-28T08:38:57.761Z,99529.00
2022-09-28T08:41:50.580Z,99537.56
2022-09-28T08:44:24.890Z,99538.19
2022-09-28T08:47:47.767Z,99532.22
2022-09-28T08:50:22.755Z,99542.69
2022-09-28T08:52:57.003Z,99544.16
2022-09-28T08:55:33.707Z,99538.84
2022-09-28T08:58:16.980Z,99538.69
2022-09-28T09:00:53.020Z,99549.13
2022-09-28T09:03:34.314Z,99547.06
2022-09-28T09:06:19.315Z,99549.34
2022-09-28T09:09:04.155Z,99561.22
2022-09-28T09:12:02.156Z,99567.44
2022-09-28T09:15:03.160Z,99568.50
2022-09-28T09:17:56.412Z,99566.81
2022-09-28T09:20:43.453Z,99565.19
2022-09-28T09:23:18.978Z,99567.75
2022-09-28T09:25:54.949Z,99570.41
2022-09-28T09:29:02.764Z,99576.56
2022-09-28T09:31:32.339Z,99569.81
2022-09-28T09:34:20.878Z,99577.56
2022-09-28T09:37:08.965Z,99579.25
2022-09-28T09:40:02.829Z,99589.50
2022-09-28T09:42:45.085Z,99582.09
2022-09-28T09:45:19.259Z,99584.91
2022-09-28T09:47:56.525Z,99587.16
2022-09-28T09:50:39.525Z,99586.81
2022-09-28T09:53:42.639Z,99587.41
2022-09-28T09:56:47.473Z,99582.25
2022-09-28T09:59:34.771Z,99583.16
2022-09-28T10:02:28.364Z,99582.22
2022-09-28T10:05:22.295Z,99579.66
2022-09-28T10:08:10.213Z,99575.41
2022-09-28T10:10:50.327Z,99575.75
2022-09-28T10:13:17.430Z,99575.59
2022-09-28T10:15:47.663Z,99581.63
2022-09-28T10:18:19.313Z,99573.81
2022-09-28T10:20:47.320Z,99570.84
2022-09-28T10:23:27.146Z,99583.63
2022-09-28T10:26:02.747Z,99586.00
2022-09-28T10:29:04.516Z,99576.19
2022-09-28T10:31:39.094Z,99581.53
2022-09-28T10:34:08.509Z,99570.38
2022-09-28T10:37:00.706Z,99572.94
2022-09-28T10:39:53.880Z,99577.25
2022-09-28T10:42:31.396Z,99587.59
2022-09-28T10:45:02.943Z,99568.59
2022-09-28T10:47:32.759Z,99574.88
2022-09-28T10:50:00.858Z,99575.94
2022-09-28T10:52:45.289Z,99583.69
2022-09-28T10:55:21.399Z,99589.13
2022-09-28T10:57:49.092Z,99575.06
2022-09-28T11:00:43.427Z,99598.84
2022-09-28T11:03:30.078Z,99598.50
2022-09-28T11:06:06.845Z,99574.03
2022-09-28T11:08:39.280Z,99575.97
2022-09-28T11:11:12.828Z,99582.03
2022-09-28T11:13:53.565Z,99591.53
2022-09-28T11:16:33.823Z,99583.66
2022-09-28T11:19:31.962Z,99595.28
2022-09-28T11:21:58.970Z,99580.88
2022-09-28T11:24:27.128Z,99580.59
2022-09-28T11:27:00.255Z,99585.00
2022-09-28T11:29:43.482Z,99593.53
2022-09-28T11:32:15.661Z,99576.72
2022-09-28T11:34:59.067Z,99580.19
2022-09-28T11:38:11.444Z,99578.78
2022-09-28T11:41:41.001Z,99578.38
2022-09-28T11:44:46.982Z,99576.47
2022-09-28T11:47:38.694Z,99574.38
2022-09-28T11:50:27.521Z,99572.53
2022-09-28T11:53:05.539Z,99576.25
2022-09-28T11:56:09.315Z,99580.16
2022-09-28T11:58:42.627Z,99575.97
2022-09-28T12:01:38.847Z,99566.13
2022-09-28T12:04:48.919Z,99591.47
2022-09-28T12:07:39.643Z,99581.16
2022-09-28T12:10:27.037Z,99573.16
2022-09-28T12:13:25.393Z,99584.84
2022-09-28T12:16:23.312Z,99577.69
2022-09-28T12:19:15.537Z,99589.00
2022-09-28T12:22:10.085Z,99586.13
2022-09-28T12:24:54.404Z,99585.50
2022-09-28T12:27:50.621Z,99587.66
2022-09-28T12:30:26.813Z,99587.81
2022-09-28T12:33:01.890Z,99581.47
2022-09-28T12:36:13.118Z,99604.78
2022-09-28T12:39:14.661Z,99589.13
2022-09-28T12:41:57.716Z,99596.88
2022-09-28T12:44:59.469Z,99583.31
2022-09-28T12:48:14.812Z,99582.25
2022-09-28T12:51:29.265Z,99590.09
2022-09-28T12:54:36.751Z,99579.78
2022-09-28T12:57:31.354Z,99580.09
2022-09-28T13:00:24.713Z,99572.28
2022-09-28T13:03:16.002Z,99564.28
2022-09-28T13:06:37.975Z,99561.97
2022-09-28T13:09:27.728Z,99562.44
2022-09-28T13:12:09.714Z,99559.50
2022-09-28T13:14:57.504Z,99562.94
2022-09-28T13:18:06.304Z,99564.97
2022-09-28T13:20:45.397Z,99572.81
2022-09-28T13:23:23.823Z,99579.03
2022-09-28T13:26:16.655Z,99585.72
2022-09-28T13:28:47.064Z,99581.03
2022-09-28T13:31:20.709Z,99571.22
2022-09-28T13:33:49.176Z,99573.84
2022-09-28T13:36:36.976Z,99563.72
2022-09-28T13:39:59.195Z,99563.28
2022-09-28T13:42:48.040Z,99563.88
2022-09-28T13:45:21.339Z,99568.63
2022-09-28T13:48:12.894Z,99571.94
2022-09-28T13:51:02.720Z,99575.06
2022-09-28T13:53:43.232Z,99583.25
2022-09-28T13:56:46.495Z,99583.53
2022-09-28T13:59:30.306Z,99586.81
2022-09-28T14:02:40.618Z,99574.72
2022-09-28T14:06:00.829Z,99572.88
2022-09-28T14:08:45.587Z,99585.16
2022-09-28T14:11:52.017Z,99583.19
2022-09-28T14:14:30.325Z,99583.56
2022-09-28T14:17:21.607Z,99582.09
2022-09-28T14:20:26.505Z,99585.03
2022-09-28T14:23:32.284Z,99585.03
2022-09-28T14:26:28.676Z,99579.38
2022-09-28T14:29:16.951Z,99593.91
2022-09-28T14:31:44.952Z,99586.72
2022-09-28T14:34:38.355Z,99582.81
2022-09-28T14:37:44.332Z,99582.59
2022-09-28T14:40:48.686Z,99584.84
2022-09-28T14:44:04.131Z,99581.06
2022-09-28T14:46:47.752Z,99595.75
2022-09-28T14:49:20.908Z,99582.50
2022-09-28T14:51:54.631Z,99586.56
2022-09-28T14:54:31.066Z,99582.03
2022-09-28T14:57:17.003Z,99589.19
2022-09-28T14:59:46.275Z,99586.97
2022-09-28T15:02:23.984Z,99580.75
2022-09-28T15:05:16.297Z,99594.34
2022-09-28T15:07:51.835Z,99596.38
2022-09-28T15:10:33.093Z,99597.97
2022-09-28T15:13:21.452Z,99602.38
2022-09-28T15:16:13.925Z,99596.22
2022-09-28T15:19:22.846Z,99612.50
2022-09-28T15:21:51.140Z,99615.22
2022-09-28T15:24:34.213Z,99610.69
2022-09-28T15:27:15.215Z,99615.66
2022-09-28T15:29:54.348Z,99605.00
2022-09-28T15:32:31.796Z,99611.97
2022-09-28T15:35:20.720Z,99616.53
2022-09-28T15:37:52.768Z,99613.19
2022-09-28T15:40:35.107Z,99624.59
2022-09-28T15:43:02.587Z,99623.72
2022-09-28T15:45:38.413Z,99623.75
2022-09-28T15:48:33.295Z,99631.66
2022-09-28T15:51:13.453Z,99626.91
2022-09-28T15:54:09.371Z,99634.06
2022-09-28T15:57:00.044Z,99634.66
2022-09-28T15:59:39.581Z,99634.66
2022-09-28T16:02:25.296Z,99638.94
2022-09-28T16:04:59.213Z,99645.78
2022-09-28T16:07:55.912Z,99654.28
2022-09-28T16:10:39.103Z,99644.69
2022-09-28T16:13:30.771Z,99643.47
2022-09-28T16:16:00.321Z,99642.31
2022-09-28T16:18:33.852Z,99640.13
2022-09-28T16:21:50.249Z,99646.81
2022-09-28T16:24:42.299Z,99638.97
2022-09-28T16:27:42.044Z,99637.50
2022-09-28T16:30:33.797Z,99647.50
2022-09-28T16:33:05.959Z,99643.88
2022-09-28T16:35:37.930Z,99650.75
2022-09-28T16:38:14.908Z,99648.03
2022-09-28T16:40:58.139Z,99649.69
2022-09-28T16:43:36.760Z,99651.97
2022-09-28T16:46:18.064Z,99657.00
2022-09-28T16:48:50.447Z,99657.97
2022-09-28T16:51:22.773Z,99661.38
2022-09-28T16:54:08.674Z,99662.47
2022-09-28T16:56:37.168Z,99659.22
2022-09-28T16:59:04.734Z,99661.41
2022-09-28T17:01:31.922Z,99656.66
2022-09-28T17:03:59.218Z,99661.69
2022-09-28T17:06:27.067Z,99662.25
2022-09-28T17:08:58.412Z,99662.94
2022-09-28T17:11:28.459Z,99666.28
2022-09-28T17:13:58.813Z,99665.06
2022-09-28T17:19:26.915Z,99662.63
2022-09-28T17:21:54.650Z,99661.25
2022-09-28T17:24:21.921Z,99665.13
2022-09-28T17:26:51.711Z,99666.41
2022-09-28T17:29:29.466Z,99670.34
2022-09-28T17:31:56.658Z,99666.44
2022-09-28T17:39:56.008Z,99683.66
2022-09-28T17:42:23.159Z,99689.31
2022-09-28T17:44:50.225Z,99693.19
2022-09-28T17:47:17.563Z,99695.09
2022-09-28T17:49:46.105Z,99696.25
2022-09-28T17:52:14.212Z,99688.19
2022-09-28T17:54:41.339Z,99694.84
2022-09-28T17:57:10.266Z,99694.22
2022-09-28T17:59:37.414Z,99695.84
2022-09-28T18:02:04.626Z,99696.72
2022-09-28T18:04:51.362Z,99693.41
2022-09-28T18:07:18.769Z,99697.38
2022-09-28T18:09:45.832Z,99696.50
2022-09-28T18:12:13.126Z,99709.81
2022-09-28T18:14:40.228Z,99711.97
2022-09-28T18:17:07.262Z,99708.38
2022-09-28T18:19:34.225Z,99716.63
2022-09-28T18:22:01.807Z,99719.41
2022-09-28T18:24:29.143Z,99721.59
2022-09-28T18:26:56.291Z,99715.72
2022-09-28T18:29:23.292Z,99714.78
2022-09-28T18:31:50.897Z,99711.50
2022-09-28T18:34:18.166Z,99715.84
2022-09-28T18:36:45.614Z,99722.78
2022-09-28T18:39:12.892Z,99721.88
2022-09-28T18:41:39.977Z,99722.91
2022-09-28T18:44:07.097Z,99725.47
2022-09-28T18:46:37.009Z,99722.09
2022-09-28T18:49:04.948Z,99723.91
2022-09-28T18:51:32.196Z,99719.66
2022-09-28T18:54:02.229Z,99727.63
2022-09-28T18:56:29.342Z,99723.09
2022-09-28T18:58:58.453Z,99724.13
2022-09-28T19:01:30.832Z,99724.22
2022-09-28T19:04:07.434Z,99720.72
2022-09-28T19:06:40.790Z,99726.91
2022-09-28T19:09:08.948Z,99725.22
2022-09-28T19:11:36.370Z,99725.25
2022-09-28T19:14:03.758Z,99726.09
2022-09-28T19:16:36.040Z,99724.19
2022-09-28T19:19:04.463Z,99724.94
2022-09-28T19:21:31.640Z,99723.25
2022-09-28T19:24:02.900Z,99723.47
2022-09-28T19:26:30.610Z,99733.97
2022-09-28T19:28:58.875Z,99725.31
2022-09-28T19:31:26.779Z,99733.22
2022-09-28T19:33:54.194Z,99733.28
2022-09-28T19:36:27.501Z,99734.28
2022-09-28T19:38:57.012Z,99735.22
2022-09-28T19:41:51.262Z,99737.88
2022-09-28T19:44:25.254Z,99732.72
2022-09-28T19:47:07.069Z,99735.63
2022-09-28T19:49:37.379Z,99746.75
2022-09-28T19:52:26.483Z,99741.56
2022-09-28T19:54:57.068Z,99741.66
2022-09-28T19:57:27.718Z,99743.47
2022-09-28T20:00:00.815Z,99750.50
2022-09-28T20:02:29.441Z,99748.81
2022-09-28T20:04:56.423Z,99745.28
2022-09-28T20:07:23.481Z,99749.06
2022-09-28T20:09:50.458Z,99752.56
2022-09-28T20:12:19.610Z,99764.81
2022-09-28T20:14:46.610Z,99760.44
2022-09-28T20:17:13.636Z,99759.56
2022-09-28T20:19:40.612Z,99763.09
2022-09-28T20:22:07.554Z,99762.25
2022-09-28T20:24:34.591Z,99764.84
2022-09-28T20:27:02.513Z,99767.50
2022-09-28T20:29:31.817Z,99768.38
2022-09-28T20:31:59.194Z,99771.00
2022-09-28T20:34:26.320Z,99764.88
2022-09-28T20:36:53.438Z,99763.97
2022-09-28T20:39:21.107Z,99772.72
2022-09-28T20:41:49.268Z,99770.06
2022-09-28T20:44:16.676Z,99768.28
2022-09-28T20:46:44.407Z,99764.72
2022-09-28T20:49:11.599Z,99765.59
2022-09-28T20:51:39.596Z,99759.44
2022-09-28T20:54:06.936Z,99761.22
2022-09-28T20:56:38.933Z,99756.00
2022-09-28T20:59:12.202Z,99758.66
2022-09-28T21:01:40.458Z,99756.94
2022-09-28T21:04:10.452Z,99759.50
2022-09-28T21:06:41.027Z,99760.41
2022-09-28T21:09:10.246Z,99758.63
2022-09-28T21:11:38.885Z,99762.13
2022-09-28T21:14:10.370Z,99761.28
2022-09-28T21:16:40.100Z,99759.59
2022-09-28T21:19:07.219Z,99761.28
2022-09-28T21:21:34.546Z,99763.13
2022-09-28T21:24:02.310Z,99759.66
2022-09-28T21:26:31.243Z,99759.69
2022-09-28T21:29:00.896Z,99756.28
2022-09-28T21:31:32.773Z,99765.84
2022-09-28T21:34:00.314Z,99761.53
2022-09-28T21:36:27.770Z,99758.06
2022-09-28T21:38:55.615Z,99760.69
2022-09-28T21:41:24.060Z,99761.63
2022-09-28T21:43:51.406Z,99762.44
2022-09-28T21:46:18.581Z,99765.09
2022-09-28T21:48:45.615Z,99767.75
2022-09-28T21:51:15.810Z,99773.06
2022-09-28T21:53:42.951Z,99769.53
2022-09-28T21:56:12.684Z,99771.16
2022-09-28T21:58:40.382Z,99772.03
2022-09-28T22:01:13.052Z,99773.78
2022-09-28T22:03:40.873Z,99783.41
2022-09-28T22:06:09.060Z,99778.19
2022-09-28T22:08:37.325Z,99786.97
2022-09-28T22:11:08.228Z,99793.97
2022-09-28T22:13:39.718Z,99798.34
2022-09-28T22:16:07.566Z,99795.72
2022-09-28T22:18:35.298Z,99802.69
2022-09-28T22:21:10.057Z,99800.03
2022-09-28T22:23:38.105Z,99799.25
2022-09-28T22:26:19.002Z,99800.97
2022-09-28T22:29:17.612Z,99799.19
2022-09-28T22:31:44.567Z,99803.50
2022-09-28T22:34:11.585Z,99797.38
2022-09-28T22:36:38.711Z,99794.78
2022-09-28T22:39:06.114Z,99803.50
2022-09-28T22:41:33.069Z,99800.88
2022-09-28T22:44:00.409Z,99805.25
2022-09-28T22:46:31.139Z,99803.44
2022-09-28T22:48:59.384Z,99804.41
2022-09-28T22:51:28.957Z,99807.03
2022-09-28T22:53:56.778Z,99803.56
2022-09-28T22:56:24.406Z,99810.66
2022-09-28T22:58:51.454Z,99806.28
2022-09-28T23:01:25.368Z,99808.84
2022-09-28T23:03:54.234Z,99807.94
2022-09-28T23:06:24.211Z,99810.53
2022-09-28T23:08:52.431Z,99815.75
2022-09-28T23:11:20.095Z,99809.69
2022-09-28T23:13:55.700Z,99802.75
2022-09-28T23:16:25.663Z,99812.34
2022-09-28T23:18:55.019Z,99804.50
2022-09-28T23:21:25.804Z,99798.38
2022-09-28T23:23:56.433Z,99798.44
2022-09-28T23:26:27.604Z,99795.75
2022-09-28T23:28:55.499Z,99801.88
2022-09-28T23:31:25.738Z,99801.94
2022-09-28T23:33:58.874Z,99804.56
2022-09-28T23:36:26.088Z,99800.16
2022-09-28T23:38:53.433Z,99803.66
2022-09-28T23:41:20.475Z,99801.94
2022-09-28T23:43:47.614Z,99795.81
2022-09-28T23:46:19.654Z,99798.41
2022-09-28T23:48:47.761Z,99796.75
2022-09-28T23:51:14.732Z,99795.88
2022-09-28T23:53:41.727Z,99795.00
2022-09-28T23:56:08.798Z,99794.13
2022-09-28T23:58:35.719Z,99797.63
